sensor_id;sensor_type;location;lat;lon;timestamp;P1;durP1;ratioP1;P2;durP2;ratioP2
3589;SDS011;1809;48.470;9.226;2023-05-10T00:01:26;1.70;;;0.60;;
3589;SDS011;1809;48.470;9.226;2023-05-10T00:03:51;0.60;;;0.60;;
3589;SDS011;1809;48.470;9.226;2023-05-10T00:06:17;0.50;;;0.50;;
3589;SDS011;1809;48.470;9.226;2023-05-10T00:08:42;0.60;;;0.60;;
3589;SDS011;1809;48.470;9.226;2023-05-10T00:11:08;0.60;;;0.60;;
3589;SDS011;1809;48.470;9.226;2023-05-10T00:13:34;0.80;;;0.70;;
3589;SDS011;1809;48.470;9.226;2023-05-10T00:15:59;0.83;;;0.83;;
3589;SDS011;1809;48.470;9.226;2023-05-10T00:18:24;2.20;;;0.60;;
3589;SDS011;1809;48.470;9.226;2023-05-10T00:20:50;0.73;;;0.73;;
3589;SDS011;1809;48.470;9.226;2023-05-10T00:23:15;0.70;;;0.70;;
3589;SDS011;1809;48.470;9.226;2023-05-10T00:25:40;0.70;;;0.70;;
3589;SDS011;1809;48.470;9.226;2023-05-10T00:28:06;0.87;;;0.87;;
3589;SDS011;1809;48.470;9.226;2023-05-10T00:30:31;0.60;;;0.60;;
3589;SDS011;1809;48.470;9.226;2023-05-10T00:32:56;1.87;;;0.70;;
3589;SDS011;1809;48.470;9.226;2023-05-10T00:35:22;0.70;;;0.70;;
3589;SDS011;1809;48.470;9.226;2023-05-10T00:37:47;0.80;;;0.80;;
3589;SDS011;1809;48.470;9.226;2023-05-10T00:40:13;0.93;;;0.93;;
3589;SDS011;1809;48.470;9.226;2023-05-10T00:42:38;0.90;;;0.90;;
3589;SDS011;1809;48.470;9.226;2023-05-10T00:45:04;0.60;;;0.60;;
3589;SDS011;1809;48.470;9.226;2023-05-10T00:47:30;0.70;;;0.70;;
3589;SDS011;1809;48.470;9.226;2023-05-10T00:49:56;0.80;;;0.80;;
3589;SDS011;1809;48.470;9.226;2023-05-10T00:52:21;0.70;;;0.70;;
3589;SDS011;1809;48.470;9.226;2023-05-10T00:54:49;0.90;;;0.90;;
3589;SDS011;1809;48.470;9.226;2023-05-10T00:57:16;0.90;;;0.90;;
3589;SDS011;1809;48.470;9.226;2023-05-10T00:59:42;0.97;;;0.70;;
3589;SDS011;1809;48.470;9.226;2023-05-10T01:02:07;0.70;;;0.60;;
3589;SDS011;1809;48.470;9.226;2023-05-10T01:04:32;0.60;;;0.60;;
3589;SDS011;1809;48.470;9.226;2023-05-10T01:06:58;0.70;;;0.70;;
3589;SDS011;1809;48.470;9.226;2023-05-10T01:09:24;2.73;;;0.50;;
3589;SDS011;1809;48.470;9.226;2023-05-10T01:11:51;0.53;;;0.53;;
3589;SDS011;1809;48.470;9.226;2023-05-10T01:14:18;0.50;;;0.50;;
3589;SDS011;1809;48.470;9.226;2023-05-10T01:16:44;0.60;;;0.50;;
3589;SDS011;1809;48.470;9.226;2023-05-10T01:19:30;0.57;;;0.57;;
3589;SDS011;1809;48.470;9.226;2023-05-10T01:24:45;1.10;;;0.60;;
3589;SDS011;1809;48.470;9.226;2023-05-10T01:33:18;0.70;;;0.70;;
3589;SDS011;1809;48.470;9.226;2023-05-10T01:35:51;0.87;;;0.87;;
3589;SDS011;1809;48.470;9.226;2023-05-10T01:47:05;0.57;;;0.57;;
3589;SDS011;1809;48.470;9.226;2023-05-10T01:49:37;0.60;;;0.60;;
3589;SDS011;1809;48.470;9.226;2023-05-10T01:52:08;0.60;;;0.60;;
3589;SDS011;1809;48.470;9.226;2023-05-10T01:54:38;1.47;;;0.60;;
3589;SDS011;1809;48.470;9.226;2023-05-10T01:57:09;0.70;;;0.70;;
3589;SDS011;1809;48.470;9.226;2023-05-10T01:59:39;1.30;;;1.30;;
3589;SDS011;1809;48.470;9.226;2023-05-10T02:02:07;1.20;;;1.20;;
3589;SDS011;1809;48.470;9.226;2023-05-10T02:04:36;1.10;;;1.10;;
3589;SDS011;1809;48.470;9.226;2023-05-10T02:07:03;1.40;;;1.40;;
3589;SDS011;1809;48.470;9.226;2023-05-10T02:09:30;0.90;;;0.90;;
3589;SDS011;1809;48.470;9.226;2023-05-10T02:11:58;0.80;;;0.80;;
3589;SDS011;1809;48.470;9.226;2023-05-10T02:14:27;0.60;;;0.60;;
3589;SDS011;1809;48.470;9.226;2023-05-10T02:16:55;0.63;;;0.60;;
3589;SDS011;1809;48.470;9.226;2023-05-10T02:19:23;0.60;;;0.60;;
3589;SDS011;1809;48.470;9.226;2023-05-10T02:21:49;0.60;;;0.60;;
3589;SDS011;1809;48.470;9.226;2023-05-10T02:24:16;1.70;;;0.50;;
3589;SDS011;1809;48.470;9.226;2023-05-10T02:26:43;0.90;;;0.90;;
3589;SDS011;1809;48.470;9.226;2023-05-10T02:29:10;0.60;;;0.60;;
3589;SDS011;1809;48.470;9.226;2023-05-10T02:31:37;0.70;;;0.70;;
3589;SDS011;1809;48.470;9.226;2023-05-10T02:34:04;1.00;;;0.93;;
3589;SDS011;1809;48.470;9.226;2023-05-10T02:36:32;0.70;;;0.70;;
3589;SDS011;1809;48.470;9.226;2023-05-10T02:38:58;0.83;;;0.83;;
3589;SDS011;1809;48.470;9.226;2023-05-10T02:41:26;0.80;;;0.80;;
3589;SDS011;1809;48.470;9.226;2023-05-10T02:43:53;0.93;;;0.93;;
3589;SDS011;1809;48.470;9.226;2023-05-10T02:46:22;0.80;;;0.80;;
3589;SDS011;1809;48.470;9.226;2023-05-10T02:48:48;0.60;;;0.60;;
3589;SDS011;1809;48.470;9.226;2023-05-10T02:51:13;0.80;;;0.80;;
3589;SDS011;1809;48.470;9.226;2023-05-10T02:53:42;0.80;;;0.80;;
3589;SDS011;1809;48.470;9.226;2023-05-10T02:56:12;1.83;;;0.70;;
3589;SDS011;1809;48.470;9.226;2023-05-10T02:58:44;1.00;;;1.00;;
3589;SDS011;1809;48.470;9.226;2023-05-10T03:01:10;0.77;;;0.77;;
3589;SDS011;1809;48.470;9.226;2023-05-10T03:03:35;3.33;;;0.67;;
3589;SDS011;1809;48.470;9.226;2023-05-10T03:06:01;0.60;;;0.60;;
3589;SDS011;1809;48.470;9.226;2023-05-10T03:08:26;1.10;;;0.80;;
3589;SDS011;1809;48.470;9.226;2023-05-10T03:13:51;0.90;;;0.90;;
3589;SDS011;1809;48.470;9.226;2023-05-10T03:16:29;1.43;;;0.80;;
3589;SDS011;1809;48.470;9.226;2023-05-10T03:19:13;0.90;;;0.80;;
3589;SDS011;1809;48.470;9.226;2023-05-10T03:21:55;1.00;;;1.00;;
3589;SDS011;1809;48.470;9.226;2023-05-10T03:24:25;2.43;;;0.80;;
3589;SDS011;1809;48.470;9.226;2023-05-10T03:26:54;3.47;;;1.07;;
3589;SDS011;1809;48.470;9.226;2023-05-10T03:29:24;4.33;;;1.80;;
3589;SDS011;1809;48.470;9.226;2023-05-10T03:31:51;1.73;;;1.20;;
3589;SDS011;1809;48.470;9.226;2023-05-10T03:34:16;1.37;;;1.37;;
3589;SDS011;1809;48.470;9.226;2023-05-10T03:36:42;1.63;;;1.40;;
3589;SDS011;1809;48.470;9.226;2023-05-10T03:39:07;1.40;;;1.30;;
3589;SDS011;1809;48.470;9.226;2023-05-10T03:41:33;2.00;;;1.13;;
3589;SDS011;1809;48.470;9.226;2023-05-10T03:43:58;1.37;;;1.37;;
3589;SDS011;1809;48.470;9.226;2023-05-10T03:46:23;1.60;;;1.50;;
3589;SDS011;1809;48.470;9.226;2023-05-10T03:48:49;0.80;;;0.80;;
3589;SDS011;1809;48.470;9.226;2023-05-10T03:51:14;0.97;;;0.97;;
3589;SDS011;1809;48.470;9.226;2023-05-10T03:53:39;2.13;;;1.40;;
3589;SDS011;1809;48.470;9.226;2023-05-10T03:56:05;1.10;;;1.10;;
3589;SDS011;1809;48.470;9.226;2023-05-10T03:58:30;1.97;;;0.93;;
3589;SDS011;1809;48.470;9.226;2023-05-10T04:00:55;0.80;;;0.80;;
3589;SDS011;1809;48.470;9.226;2023-05-10T04:03:21;1.20;;;1.10;;
3589;SDS011;1809;48.470;9.226;2023-05-10T04:05:46;1.20;;;1.10;;
3589;SDS011;1809;48.470;9.226;2023-05-10T04:08:11;0.87;;;0.87;;
3589;SDS011;1809;48.470;9.226;2023-05-10T04:10:37;1.73;;;0.90;;
3589;SDS011;1809;48.470;9.226;2023-05-10T04:13:02;0.80;;;0.80;;
3589;SDS011;1809;48.470;9.226;2023-05-10T04:15:27;1.00;;;0.90;;
3589;SDS011;1809;48.470;9.226;2023-05-10T04:17:53;1.20;;;1.10;;
3589;SDS011;1809;48.470;9.226;2023-05-10T04:20:18;1.10;;;1.10;;
3589;SDS011;1809;48.470;9.226;2023-05-10T04:22:44;0.90;;;0.90;;
3589;SDS011;1809;48.470;9.226;2023-05-10T04:25:09;2.00;;;1.00;;
3589;SDS011;1809;48.470;9.226;2023-05-10T04:27:34;1.40;;;1.30;;
3589;SDS011;1809;48.470;9.226;2023-05-10T04:30:00;1.30;;;1.20;;
3589;SDS011;1809;48.470;9.226;2023-05-10T04:32:25;2.30;;;1.10;;
3589;SDS011;1809;48.470;9.226;2023-05-10T04:34:51;1.30;;;1.30;;
3589;SDS011;1809;48.470;9.226;2023-05-10T04:37:17;1.20;;;1.20;;
3589;SDS011;1809;48.470;9.226;2023-05-10T04:39:42;1.40;;;1.40;;
3589;SDS011;1809;48.470;9.226;2023-05-10T04:42:08;3.57;;;1.40;;
3589;SDS011;1809;48.470;9.226;2023-05-10T04:44:33;2.40;;;1.53;;
3589;SDS011;1809;48.470;9.226;2023-05-10T04:46:59;1.20;;;1.10;;
3589;SDS011;1809;48.470;9.226;2023-05-10T04:49:24;2.00;;;1.00;;
3589;SDS011;1809;48.470;9.226;2023-05-10T04:51:49;3.50;;;1.20;;
3589;SDS011;1809;48.470;9.226;2023-05-10T04:54:15;1.77;;;1.63;;
3589;SDS011;1809;48.470;9.226;2023-05-10T04:56:40;1.50;;;1.40;;
3589;SDS011;1809;48.470;9.226;2023-05-10T04:59:06;1.50;;;1.40;;
3589;SDS011;1809;48.470;9.226;2023-05-10T05:01:31;2.80;;;1.50;;
3589;SDS011;1809;48.470;9.226;2023-05-10T05:03:57;2.70;;;1.57;;
3589;SDS011;1809;48.470;9.226;2023-05-10T05:06:22;1.47;;;1.43;;
3589;SDS011;1809;48.470;9.226;2023-05-10T05:08:49;1.80;;;1.70;;
3589;SDS011;1809;48.470;9.226;2023-05-10T05:11:15;2.30;;;2.00;;
3589;SDS011;1809;48.470;9.226;2023-05-10T05:13:40;2.13;;;1.73;;
3589;SDS011;1809;48.470;9.226;2023-05-10T05:16:06;2.50;;;1.40;;
3589;SDS011;1809;48.470;9.226;2023-05-10T05:18:31;1.77;;;1.67;;
3589;SDS011;1809;48.470;9.226;2023-05-10T05:20:56;4.23;;;2.50;;
3589;SDS011;1809;48.470;9.226;2023-05-10T05:23:22;1.97;;;1.87;;
3589;SDS011;1809;48.470;9.226;2023-05-10T05:25:50;2.23;;;1.50;;
3589;SDS011;1809;48.470;9.226;2023-05-10T05:28:16;1.70;;;1.60;;
3589;SDS011;1809;48.470;9.226;2023-05-10T05:30:42;1.50;;;1.40;;
3589;SDS011;1809;48.470;9.226;2023-05-10T05:33:07;1.40;;;1.40;;
3589;SDS011;1809;48.470;9.226;2023-05-10T05:35:32;1.63;;;1.60;;
3589;SDS011;1809;48.470;9.226;2023-05-10T05:37:58;1.50;;;1.40;;
3589;SDS011;1809;48.470;9.226;2023-05-10T05:40:23;1.93;;;1.43;;
3589;SDS011;1809;48.470;9.226;2023-05-10T05:42:48;2.40;;;1.30;;
3589;SDS011;1809;48.470;9.226;2023-05-10T05:45:14;3.33;;;1.40;;
3589;SDS011;1809;48.470;9.226;2023-05-10T05:47:40;2.00;;;1.13;;
3589;SDS011;1809;48.470;9.226;2023-05-10T05:50:06;3.33;;;1.17;;
3589;SDS011;1809;48.470;9.226;2023-05-10T05:52:31;1.43;;;1.30;;
3589;SDS011;1809;48.470;9.226;2023-05-10T05:54:57;1.33;;;1.20;;
3589;SDS011;1809;48.470;9.226;2023-05-10T05:57:22;1.27;;;1.27;;
3589;SDS011;1809;48.470;9.226;2023-05-10T05:59:48;1.40;;;1.30;;
3589;SDS011;1809;48.470;9.226;2023-05-10T06:02:13;1.20;;;1.10;;
3589;SDS011;1809;48.470;9.226;2023-05-10T06:04:38;1.13;;;1.13;;
3589;SDS011;1809;48.470;9.226;2023-05-10T06:07:04;1.00;;;0.90;;
3589;SDS011;1809;48.470;9.226;2023-05-10T06:09:29;1.30;;;1.20;;
3589;SDS011;1809;48.470;9.226;2023-05-10T06:11:54;1.10;;;1.00;;
3589;SDS011;1809;48.470;9.226;2023-05-10T06:14:20;3.13;;;1.17;;
3589;SDS011;1809;48.470;9.226;2023-05-10T06:16:45;2.13;;;1.30;;
3589;SDS011;1809;48.470;9.226;2023-05-10T06:19:11;1.37;;;1.17;;
3589;SDS011;1809;48.470;9.226;2023-05-10T06:21:36;5.23;;;1.50;;
3589;SDS011;1809;48.470;9.226;2023-05-10T06:24:02;1.40;;;1.33;;
3589;SDS011;1809;48.470;9.226;2023-05-10T06:26:27;1.20;;;1.20;;
3589;SDS011;1809;48.470;9.226;2023-05-10T06:28:53;1.80;;;0.93;;
3589;SDS011;1809;48.470;9.226;2023-05-10T06:31:18;5.90;;;1.23;;
3589;SDS011;1809;48.470;9.226;2023-05-10T06:33:43;1.00;;;1.00;;
3589;SDS011;1809;48.470;9.226;2023-05-10T06:36:09;1.00;;;1.00;;
3589;SDS011;1809;48.470;9.226;2023-05-10T06:38:34;1.10;;;0.97;;
3589;SDS011;1809;48.470;9.226;2023-05-10T06:40:59;2.20;;;1.23;;
3589;SDS011;1809;48.470;9.226;2023-05-10T06:43:25;1.00;;;1.00;;
3589;SDS011;1809;48.470;9.226;2023-05-10T06:45:51;1.00;;;1.00;;
3589;SDS011;1809;48.470;9.226;2023-05-10T06:48:16;1.43;;;1.30;;
3589;SDS011;1809;48.470;9.226;2023-05-10T06:50:42;1.10;;;1.10;;
3589;SDS011;1809;48.470;9.226;2023-05-10T06:53:07;5.00;;;1.07;;
3589;SDS011;1809;48.470;9.226;2023-05-10T06:55:33;1.00;;;1.00;;
3589;SDS011;1809;48.470;9.226;2023-05-10T06:57:58;1.13;;;1.13;;
3589;SDS011;1809;48.470;9.226;2023-05-10T07:00:23;1.07;;;0.90;;
3589;SDS011;1809;48.470;9.226;2023-05-10T07:02:49;1.23;;;1.03;;
3589;SDS011;1809;48.470;9.226;2023-05-10T07:05:14;2.03;;;0.83;;
3589;SDS011;1809;48.470;9.226;2023-05-10T07:07:40;5.03;;;0.80;;
3589;SDS011;1809;48.470;9.226;2023-05-10T07:10:05;0.80;;;0.80;;
3589;SDS011;1809;48.470;9.226;2023-05-10T07:12:32;1.70;;;0.80;;
3589;SDS011;1809;48.470;9.226;2023-05-10T07:14:57;1.30;;;0.90;;
3589;SDS011;1809;48.470;9.226;2023-05-10T07:17:22;6.20;;;1.40;;
3589;SDS011;1809;48.470;9.226;2023-05-10T07:19:48;1.37;;;1.10;;
3589;SDS011;1809;48.470;9.226;2023-05-10T07:22:14;0.87;;;0.80;;
3589;SDS011;1809;48.470;9.226;2023-05-10T07:24:40;2.10;;;0.77;;
3589;SDS011;1809;48.470;9.226;2023-05-10T07:27:05;1.03;;;0.93;;
3589;SDS011;1809;48.470;9.226;2023-05-10T07:29:31;3.30;;;1.07;;
3589;SDS011;1809;48.470;9.226;2023-05-10T07:31:56;2.53;;;0.80;;
3589;SDS011;1809;48.470;9.226;2023-05-10T07:34:21;6.77;;;0.90;;
3589;SDS011;1809;48.470;9.226;2023-05-10T07:36:47;1.10;;;0.90;;
3589;SDS011;1809;48.470;9.226;2023-05-10T07:39:12;1.13;;;1.13;;
3589;SDS011;1809;48.470;9.226;2023-05-10T07:41:37;1.73;;;1.63;;
3589;SDS011;1809;48.470;9.226;2023-05-10T07:44:03;2.30;;;1.10;;
3589;SDS011;1809;48.470;9.226;2023-05-10T07:46:29;0.90;;;0.90;;
3589;SDS011;1809;48.470;9.226;2023-05-10T07:48:55;1.90;;;0.87;;
3589;SDS011;1809;48.470;9.226;2023-05-10T07:51:20;5.07;;;1.03;;
3589;SDS011;1809;48.470;9.226;2023-05-10T07:53:46;1.00;;;1.00;;
3589;SDS011;1809;48.470;9.226;2023-05-10T07:56:24;2.03;;;0.80;;
3589;SDS011;1809;48.470;9.226;2023-05-10T07:58:52;1.47;;;1.20;;
3589;SDS011;1809;48.470;9.226;2023-05-10T08:01:17;1.43;;;0.90;;
3589;SDS011;1809;48.470;9.226;2023-05-10T08:03:42;0.70;;;0.70;;
3589;SDS011;1809;48.470;9.226;2023-05-10T08:06:08;1.67;;;0.90;;
3589;SDS011;1809;48.470;9.226;2023-05-10T08:08:33;5.07;;;0.90;;
3589;SDS011;1809;48.470;9.226;2023-05-10T08:10:58;0.80;;;0.80;;
3589;SDS011;1809;48.470;9.226;2023-05-10T08:13:24;1.70;;;0.70;;
3589;SDS011;1809;48.470;9.226;2023-05-10T08:15:49;0.80;;;0.80;;
3589;SDS011;1809;48.470;9.226;2023-05-10T08:18:17;0.87;;;0.87;;
3589;SDS011;1809;48.470;9.226;2023-05-10T08:20:43;0.70;;;0.70;;
3589;SDS011;1809;48.470;9.226;2023-05-10T08:23:08;3.37;;;1.27;;
3589;SDS011;1809;48.470;9.226;2023-05-10T08:25:33;2.20;;;0.70;;
3589;SDS011;1809;48.470;9.226;2023-05-10T08:27:59;1.10;;;0.80;;
3589;SDS011;1809;48.470;9.226;2023-05-10T08:30:24;6.53;;;0.80;;
3589;SDS011;1809;48.470;9.226;2023-05-10T08:32:49;0.67;;;0.67;;
3589;SDS011;1809;48.470;9.226;2023-05-10T08:35:15;0.90;;;0.90;;
3589;SDS011;1809;48.470;9.226;2023-05-10T08:37:40;1.67;;;0.63;;
3589;SDS011;1809;48.470;9.226;2023-05-10T08:40:06;0.80;;;0.80;;
3589;SDS011;1809;48.470;9.226;2023-05-10T08:42:34;0.87;;;0.80;;
3589;SDS011;1809;48.470;9.226;2023-05-10T08:45:02;1.23;;;0.70;;
3589;SDS011;1809;48.470;9.226;2023-05-10T08:47:29;2.87;;;0.87;;
3589;SDS011;1809;48.470;9.226;2023-05-10T08:49:55;1.43;;;0.70;;
3589;SDS011;1809;48.470;9.226;2023-05-10T08:52:22;0.60;;;0.60;;
3589;SDS011;1809;48.470;9.226;2023-05-10T08:54:51;0.80;;;0.80;;
3589;SDS011;1809;48.470;9.226;2023-05-10T08:57:16;2.80;;;0.90;;
3589;SDS011;1809;48.470;9.226;2023-05-10T08:59:42;0.67;;;0.67;;
3589;SDS011;1809;48.470;9.226;2023-05-10T09:02:08;2.20;;;0.67;;
3589;SDS011;1809;48.470;9.226;2023-05-10T09:04:36;3.13;;;0.70;;
3589;SDS011;1809;48.470;9.226;2023-05-10T09:07:01;0.70;;;0.70;;
3589;SDS011;1809;48.470;9.226;2023-05-10T09:09:27;1.10;;;0.63;;
3589;SDS011;1809;48.470;9.226;2023-05-10T09:11:53;1.17;;;0.60;;
3589;SDS011;1809;48.470;9.226;2023-05-10T09:14:19;0.70;;;0.70;;
3589;SDS011;1809;48.470;9.226;2023-05-10T09:16:45;4.47;;;0.87;;
3589;SDS011;1809;48.470;9.226;2023-05-10T09:19:10;3.73;;;0.60;;
3589;SDS011;1809;48.470;9.226;2023-05-10T09:21:36;0.60;;;0.60;;
3589;SDS011;1809;48.470;9.226;2023-05-10T09:24:06;0.80;;;0.80;;
3589;SDS011;1809;48.470;9.226;2023-05-10T09:26:32;0.70;;;0.70;;
3589;SDS011;1809;48.470;9.226;2023-05-10T09:28:59;0.60;;;0.60;;
3589;SDS011;1809;48.470;9.226;2023-05-10T09:31:28;0.77;;;0.77;;
3589;SDS011;1809;48.470;9.226;2023-05-10T09:34:37;1.20;;;0.60;;
3589;SDS011;1809;48.470;9.226;2023-05-10T09:37:05;1.63;;;0.60;;
3589;SDS011;1809;48.470;9.226;2023-05-10T09:39:34;0.70;;;0.70;;
3589;SDS011;1809;48.470;9.226;2023-05-10T09:42:02;0.70;;;0.70;;
3589;SDS011;1809;48.470;9.226;2023-05-10T09:44:29;1.50;;;0.77;;
3589;SDS011;1809;48.470;9.226;2023-05-10T09:46:55;2.00;;;0.70;;
3589;SDS011;1809;48.470;9.226;2023-05-10T09:49:21;0.60;;;0.60;;
3589;SDS011;1809;48.470;9.226;2023-05-10T09:51:47;0.70;;;0.70;;
3589;SDS011;1809;48.470;9.226;2023-05-10T09:54:22;1.67;;;0.70;;
3589;SDS011;1809;48.470;9.226;2023-05-10T09:56:48;0.70;;;0.70;;
3589;SDS011;1809;48.470;9.226;2023-05-10T09:59:14;0.70;;;0.60;;
3589;SDS011;1809;48.470;9.226;2023-05-10T10:01:39;0.60;;;0.60;;
3589;SDS011;1809;48.470;9.226;2023-05-10T10:04:06;4.97;;;0.70;;
3589;SDS011;1809;48.470;9.226;2023-05-10T10:06:36;1.13;;;0.80;;
3589;SDS011;1809;48.470;9.226;2023-05-10T10:09:05;0.93;;;0.93;;
3589;SDS011;1809;48.470;9.226;2023-05-10T10:11:33;2.63;;;0.80;;
3589;SDS011;1809;48.470;9.226;2023-05-10T10:14:00;4.03;;;0.80;;
3589;SDS011;1809;48.470;9.226;2023-05-10T10:16:26;1.27;;;0.80;;
3589;SDS011;1809;48.470;9.226;2023-05-10T10:18:54;0.73;;;0.73;;
3589;SDS011;1809;48.470;9.226;2023-05-10T10:21:19;0.77;;;0.77;;
3589;SDS011;1809;48.470;9.226;2023-05-10T10:23:46;1.53;;;0.90;;
3589;SDS011;1809;48.470;9.226;2023-05-10T10:26:11;0.90;;;0.90;;
3589;SDS011;1809;48.470;9.226;2023-05-10T10:31:41;0.90;;;0.90;;
3589;SDS011;1809;48.470;9.226;2023-05-10T10:34:28;1.07;;;1.07;;
3589;SDS011;1809;48.470;9.226;2023-05-10T10:36:54;0.80;;;0.80;;
3589;SDS011;1809;48.470;9.226;2023-05-10T10:39:21;0.80;;;0.80;;
3589;SDS011;1809;48.470;9.226;2023-05-10T10:41:51;1.10;;;1.00;;
3589;SDS011;1809;48.470;9.226;2023-05-10T10:52:23;0.90;;;0.90;;
3589;SDS011;1809;48.470;9.226;2023-05-10T10:54:56;4.53;;;0.80;;
3589;SDS011;1809;48.470;9.226;2023-05-10T10:57:24;1.10;;;1.00;;
3589;SDS011;1809;48.470;9.226;2023-05-10T10:59:51;3.80;;;0.90;;
3589;SDS011;1809;48.470;9.226;2023-05-10T11:02:46;1.13;;;0.70;;
3589;SDS011;1809;48.470;9.226;2023-05-10T11:07:54;2.83;;;0.90;;
3589;SDS011;1809;48.470;9.226;2023-05-10T11:10:21;1.27;;;0.93;;
3589;SDS011;1809;48.470;9.226;2023-05-10T11:12:58;1.77;;;1.20;;
3589;SDS011;1809;48.470;9.226;2023-05-10T11:15:29;0.80;;;0.80;;
3589;SDS011;1809;48.470;9.226;2023-05-10T11:20:51;1.10;;;1.10;;
3589;SDS011;1809;48.470;9.226;2023-05-10T11:23:19;3.73;;;1.27;;
3589;SDS011;1809;48.470;9.226;2023-05-10T11:25:46;1.57;;;0.70;;
3589;SDS011;1809;48.470;9.226;2023-05-10T11:28:13;0.63;;;0.63;;
3589;SDS011;1809;48.470;9.226;2023-05-10T11:30:39;0.70;;;0.70;;
3589;SDS011;1809;48.470;9.226;2023-05-10T11:33:05;0.70;;;0.70;;
3589;SDS011;1809;48.470;9.226;2023-05-10T11:35:36;1.23;;;0.70;;
3589;SDS011;1809;48.470;9.226;2023-05-10T11:38:07;1.00;;;0.57;;
3589;SDS011;1809;48.470;9.226;2023-05-10T11:40:33;1.67;;;1.10;;
3589;SDS011;1809;48.470;9.226;2023-05-10T11:42:59;1.10;;;0.70;;
3589;SDS011;1809;48.470;9.226;2023-05-10T11:45:25;1.33;;;0.60;;
3589;SDS011;1809;48.470;9.226;2023-05-10T11:47:52;1.37;;;0.97;;
3589;SDS011;1809;48.470;9.226;2023-05-10T11:50:17;1.47;;;1.07;;
3589;SDS011;1809;48.470;9.226;2023-05-10T11:52:43;1.50;;;0.80;;
3589;SDS011;1809;48.470;9.226;2023-05-10T11:55:08;0.80;;;0.63;;
3589;SDS011;1809;48.470;9.226;2023-05-10T11:57:34;1.30;;;1.30;;
3589;SDS011;1809;48.470;9.226;2023-05-10T12:00:03;5.03;;;0.80;;
3589;SDS011;1809;48.470;9.226;2023-05-10T12:02:29;3.50;;;0.80;;
3589;SDS011;1809;48.470;9.226;2023-05-10T12:04:55;0.70;;;0.70;;
3589;SDS011;1809;48.470;9.226;2023-05-10T12:07:21;3.33;;;0.83;;
3589;SDS011;1809;48.470;9.226;2023-05-10T12:12:51;1.47;;;0.80;;
3589;SDS011;1809;48.470;9.226;2023-05-10T12:15:21;2.50;;;0.80;;
3589;SDS011;1809;48.470;9.226;2023-05-10T12:17:48;3.90;;;0.97;;
3589;SDS011;1809;48.470;9.226;2023-05-10T12:20:15;2.40;;;0.97;;
3589;SDS011;1809;48.470;9.226;2023-05-10T12:22:51;0.83;;;0.80;;
3589;SDS011;1809;48.470;9.226;2023-05-10T12:25:18;0.97;;;0.93;;
3589;SDS011;1809;48.470;9.226;2023-05-10T12:27:53;3.27;;;0.77;;
3589;SDS011;1809;48.470;9.226;2023-05-10T12:30:21;1.10;;;0.90;;
3589;SDS011;1809;48.470;9.226;2023-05-10T12:32:54;1.10;;;1.00;;
3589;SDS011;1809;48.470;9.226;2023-05-10T12:35:25;2.17;;;0.83;;
3589;SDS011;1809;48.470;9.226;2023-05-10T12:37:51;1.93;;;0.90;;
3589;SDS011;1809;48.470;9.226;2023-05-10T12:40:16;7.20;;;0.90;;
3589;SDS011;1809;48.470;9.226;2023-05-10T12:42:42;0.80;;;0.80;;
3589;SDS011;1809;48.470;9.226;2023-05-10T12:45:09;0.60;;;0.60;;
3589;SDS011;1809;48.470;9.226;2023-05-10T12:47:36;1.37;;;0.80;;
3589;SDS011;1809;48.470;9.226;2023-05-10T12:50:02;0.80;;;0.80;;
3589;SDS011;1809;48.470;9.226;2023-05-10T12:52:28;1.80;;;0.90;;
3589;SDS011;1809;48.470;9.226;2023-05-10T12:54:53;3.13;;;0.80;;
3589;SDS011;1809;48.470;9.226;2023-05-10T12:57:22;0.77;;;0.77;;
3589;SDS011;1809;48.470;9.226;2023-05-10T12:59:47;2.03;;;1.00;;
3589;SDS011;1809;48.470;9.226;2023-05-10T13:02:12;0.83;;;0.83;;
3589;SDS011;1809;48.470;9.226;2023-05-10T13:04:39;1.20;;;0.90;;
3589;SDS011;1809;48.470;9.226;2023-05-10T13:07:05;1.00;;;1.00;;
3589;SDS011;1809;48.470;9.226;2023-05-10T13:09:31;5.13;;;0.70;;
3589;SDS011;1809;48.470;9.226;2023-05-10T13:11:57;0.70;;;0.70;;
3589;SDS011;1809;48.470;9.226;2023-05-10T13:14:22;7.20;;;0.93;;
3589;SDS011;1809;48.470;9.226;2023-05-10T13:16:47;1.03;;;0.93;;
3589;SDS011;1809;48.470;9.226;2023-05-10T13:19:13;5.00;;;0.80;;
3589;SDS011;1809;48.470;9.226;2023-05-10T13:21:39;4.23;;;0.87;;
3589;SDS011;1809;48.470;9.226;2023-05-10T13:24:06;0.80;;;0.80;;
3589;SDS011;1809;48.470;9.226;2023-05-10T13:26:31;1.23;;;1.13;;
3589;SDS011;1809;48.470;9.226;2023-05-10T13:28:57;1.37;;;1.20;;
3589;SDS011;1809;48.470;9.226;2023-05-10T13:31:22;1.17;;;0.83;;
3589;SDS011;1809;48.470;9.226;2023-05-10T13:33:48;2.40;;;0.80;;
3589;SDS011;1809;48.470;9.226;2023-05-10T13:36:13;1.73;;;1.63;;
3589;SDS011;1809;48.470;9.226;2023-05-10T13:38:38;1.00;;;1.00;;
3589;SDS011;1809;48.470;9.226;2023-05-10T13:41:04;1.40;;;0.90;;
3589;SDS011;1809;48.470;9.226;2023-05-10T13:43:29;1.23;;;1.10;;
3589;SDS011;1809;48.470;9.226;2023-05-10T13:45:54;2.20;;;1.03;;
3589;SDS011;1809;48.470;9.226;2023-05-10T13:48:20;4.47;;;0.80;;
3589;SDS011;1809;48.470;9.226;2023-05-10T13:50:46;0.90;;;0.90;;
3589;SDS011;1809;48.470;9.226;2023-05-10T13:53:12;4.83;;;0.90;;
3589;SDS011;1809;48.470;9.226;2023-05-10T13:55:37;3.27;;;1.10;;
3589;SDS011;1809;48.470;9.226;2023-05-10T13:58:03;2.00;;;0.93;;
3589;SDS011;1809;48.470;9.226;2023-05-10T14:00:28;0.80;;;0.80;;
3589;SDS011;1809;48.470;9.226;2023-05-10T14:02:53;0.87;;;0.87;;
3589;SDS011;1809;48.470;9.226;2023-05-10T14:05:19;2.57;;;0.90;;
3589;SDS011;1809;48.470;9.226;2023-05-10T14:07:45;1.63;;;0.80;;
3589;SDS011;1809;48.470;9.226;2023-05-10T14:10:10;1.30;;;1.13;;
3589;SDS011;1809;48.470;9.226;2023-05-10T14:12:35;1.33;;;1.10;;
3589;SDS011;1809;48.470;9.226;2023-05-10T14:15:01;1.10;;;1.00;;
3589;SDS011;1809;48.470;9.226;2023-05-10T14:17:27;1.50;;;0.90;;
3589;SDS011;1809;48.470;9.226;2023-05-10T14:19:52;2.43;;;1.00;;
3589;SDS011;1809;48.470;9.226;2023-05-10T14:22:18;1.10;;;1.00;;
3589;SDS011;1809;48.470;9.226;2023-05-10T14:24:43;1.33;;;1.00;;
3589;SDS011;1809;48.470;9.226;2023-05-10T14:27:11;4.10;;;1.40;;
3589;SDS011;1809;48.470;9.226;2023-05-10T14:29:37;1.00;;;1.00;;
3589;SDS011;1809;48.470;9.226;2023-05-10T14:32:02;1.10;;;0.90;;
3589;SDS011;1809;48.470;9.226;2023-05-10T14:34:28;1.20;;;1.10;;
3589;SDS011;1809;48.470;9.226;2023-05-10T14:36:53;1.50;;;1.20;;
3589;SDS011;1809;48.470;9.226;2023-05-10T14:39:19;3.80;;;1.20;;
3589;SDS011;1809;48.470;9.226;2023-05-10T14:41:44;1.53;;;1.23;;
3589;SDS011;1809;48.470;9.226;2023-05-10T14:44:10;1.43;;;1.17;;
3589;SDS011;1809;48.470;9.226;2023-05-10T14:46:36;1.83;;;1.73;;
3589;SDS011;1809;48.470;9.226;2023-05-10T14:49:01;1.73;;;1.20;;
3589;SDS011;1809;48.470;9.226;2023-05-10T14:51:27;9.23;;;1.40;;
3589;SDS011;1809;48.470;9.226;2023-05-10T14:53:52;2.23;;;1.10;;
3589;SDS011;1809;48.470;9.226;2023-05-10T14:56:17;5.20;;;1.87;;
3589;SDS011;1809;48.470;9.226;2023-05-10T14:58:43;3.67;;;2.40;;
3589;SDS011;1809;48.470;9.226;2023-05-10T15:01:08;4.00;;;1.67;;
3589;SDS011;1809;48.470;9.226;2023-05-10T15:03:34;1.00;;;1.00;;
3589;SDS011;1809;48.470;9.226;2023-05-10T15:05:59;1.00;;;1.00;;
3589;SDS011;1809;48.470;9.226;2023-05-10T15:08:24;1.93;;;1.40;;
3589;SDS011;1809;48.470;9.226;2023-05-10T15:10:50;3.13;;;0.90;;
3589;SDS011;1809;48.470;9.226;2023-05-10T15:13:16;1.20;;;1.20;;
3589;SDS011;1809;48.470;9.226;2023-05-10T15:15:42;5.80;;;0.97;;
3589;SDS011;1809;48.470;9.226;2023-05-10T15:18:08;1.53;;;1.00;;
3589;SDS011;1809;48.470;9.226;2023-05-10T15:20:34;4.50;;;1.50;;
3589;SDS011;1809;48.470;9.226;2023-05-10T15:23:00;1.60;;;1.17;;
3589;SDS011;1809;48.470;9.226;2023-05-10T15:25:25;2.03;;;1.20;;
3589;SDS011;1809;48.470;9.226;2023-05-10T15:27:51;1.50;;;1.37;;
3589;SDS011;1809;48.470;9.226;2023-05-10T15:30:16;2.93;;;1.63;;
3589;SDS011;1809;48.470;9.226;2023-05-10T15:32:41;3.57;;;1.80;;
3589;SDS011;1809;48.470;9.226;2023-05-10T15:35:07;1.90;;;1.00;;
3589;SDS011;1809;48.470;9.226;2023-05-10T15:37:35;6.97;;;1.67;;
3589;SDS011;1809;48.470;9.226;2023-05-10T15:40:00;1.40;;;1.23;;
3589;SDS011;1809;48.470;9.226;2023-05-10T15:42:28;3.50;;;1.27;;
3589;SDS011;1809;48.470;9.226;2023-05-10T15:44:55;3.53;;;1.37;;
3589;SDS011;1809;48.470;9.226;2023-05-10T15:47:20;2.20;;;1.30;;
3589;SDS011;1809;48.470;9.226;2023-05-10T15:49:46;3.07;;;1.87;;
3589;SDS011;1809;48.470;9.226;2023-05-10T15:52:11;2.20;;;2.00;;